createdAt,value
2018-02-04T00:00:47.883Z,8.35
2018-02-04T00:03:16.676Z,8.50
2018-02-04T00:05:46.426Z,8.10
2018-02-04T00:08:15.814Z,8.40
2018-02-04T00:10:46.212Z,8.77
2018-02-04T00:13:16.431Z,7.90
2018-02-04T00:15:46.998Z,9.55
2018-02-04T00:18:15.542Z,8.35
2018-02-04T00:20:45.509Z,8.90
2018-02-04T00:23:17.163Z,7.50
2018-02-04T00:25:55.485Z,8.18
2018-02-04T00:28:24.623Z,8.27
2018-02-04T00:30:57.953Z,8.73
2018-02-04T00:33:27.166Z,7.90
2018-02-04T00:35:56.735Z,8.52
2018-02-04T00:38:25.611Z,7.90
2018-02-04T00:40:55.497Z,6.18
2018-02-04T00:43:25.587Z,8.30
2018-02-04T00:45:55.251Z,8.70
2018-02-04T00:48:24.575Z,8.00
2018-02-04T00:50:53.325Z,8.85
2018-02-04T00:53:21.843Z,6.03
2018-02-04T00:55:50.663Z,6.43
2018-02-04T00:58:19.750Z,6.55
2018-02-04T01:00:48.274Z,4.75
2018-02-04T01:03:16.862Z,3.83
2018-02-04T01:05:45.749Z,1.95
2018-02-04T01:08:14.218Z,1.80
2018-02-04T01:10:42.657Z,1.33
2018-02-04T01:13:11.506Z,1.45
2018-02-04T01:15:40.937Z,1.60
2018-02-04T01:18:10.186Z,1.80
2018-02-04T01:20:38.715Z,1.60
2018-02-04T01:23:08.278Z,1.77
2018-02-04T01:25:36.739Z,1.77
2018-02-04T01:28:05.219Z,2.03
2018-02-04T01:30:33.718Z,1.92
2018-02-04T01:33:02.138Z,2.47
2018-02-04T01:35:30.698Z,3.08
2018-02-04T01:38:03.669Z,2.12
2018-02-04T01:40:33.206Z,2.00
2018-02-04T01:43:01.775Z,3.03
2018-02-04T01:45:32.404Z,2.35
2018-02-04T01:48:08.773Z,1.77
2018-02-04T01:50:37.217Z,1.40
2018-02-04T01:53:05.634Z,2.20
2018-02-04T01:55:35.305Z,2.95
2018-02-04T01:58:03.780Z,2.30
2018-02-04T02:00:32.219Z,2.67
2018-02-04T02:03:01.119Z,2.75
2018-02-04T02:05:29.842Z,3.47
2018-02-04T02:07:59.962Z,4.35
2018-02-04T02:10:28.785Z,3.85
2018-02-04T02:12:57.396Z,3.92
2018-02-04T02:15:25.914Z,4.53
2018-02-04T02:17:54.426Z,3.87
2018-02-04T02:20:22.974Z,3.40
2018-02-04T02:22:51.556Z,4.20
2018-02-04T02:25:20.702Z,5.25
2018-02-04T02:27:49.149Z,4.22
2018-02-04T02:30:17.578Z,4.37
2018-02-04T02:32:46.062Z,3.90
2018-02-04T02:35:14.514Z,3.78
2018-02-04T02:37:42.920Z,5.00
2018-02-04T02:40:11.468Z,3.75
2018-02-04T02:42:39.928Z,3.72
2018-02-04T02:45:08.426Z,4.43
2018-02-04T02:47:36.990Z,3.85
2018-02-04T02:50:11.212Z,3.87
2018-02-04T02:52:39.867Z,3.08
2018-02-04T02:55:08.355Z,3.30
2018-02-04T02:57:36.842Z,3.72
2018-02-04T03:00:05.323Z,4.37
2018-02-04T03:02:33.832Z,3.80
2018-02-04T03:05:03.366Z,3.60
2018-02-04T03:07:32.087Z,4.00
2018-02-04T03:10:00.482Z,3.37
2018-02-04T03:12:28.931Z,3.80
2018-02-04T03:14:58.269Z,3.15
2018-02-04T03:17:26.750Z,3.90
2018-02-04T03:19:55.528Z,3.22
2018-02-04T03:22:24.282Z,4.05
2018-02-04T03:24:52.930Z,4.18
2018-02-04T03:27:21.458Z,5.15
2018-02-04T03:29:50.994Z,5.15
2018-02-04T03:32:19.616Z,5.18
2018-02-04T03:34:48.064Z,4.43
2018-02-04T03:37:17.240Z,4.15
2018-02-04T03:39:45.672Z,3.58
2018-02-04T03:42:14.216Z,3.35
2018-02-04T03:44:42.940Z,3.50
2018-02-04T03:47:11.398Z,3.58
2018-02-04T03:49:39.833Z,3.40
2018-02-04T03:52:08.473Z,3.42
2018-02-04T03:54:36.917Z,3.05
2018-02-04T03:57:05.345Z,2.72
2018-02-04T03:59:33.861Z,2.95
2018-02-04T04:02:02.291Z,3.20
2018-02-04T04:04:30.703Z,3.20
2018-02-04T04:06:59.457Z,3.67
2018-02-04T04:09:27.885Z,2.75
2018-02-04T04:11:56.364Z,2.80
2018-02-04T04:14:25.018Z,2.67
2018-02-04T04:16:53.534Z,3.40
2018-02-04T04:19:22.217Z,5.00
2018-02-04T04:21:50.905Z,3.20
2018-02-04T04:24:19.344Z,3.30
2018-02-04T04:26:47.804Z,3.28
2018-02-04T04:29:16.512Z,3.33
2018-02-04T04:31:44.986Z,3.20
2018-02-04T04:34:13.393Z,2.58
2018-02-04T04:36:41.869Z,2.87
2018-02-04T04:39:10.330Z,3.08
2018-02-04T04:41:38.762Z,2.72
2018-02-04T04:44:07.822Z,2.58
2018-02-04T04:46:36.510Z,2.70
2018-02-04T04:49:04.930Z,3.20
2018-02-04T04:51:51.410Z,3.00
2018-02-04T04:54:19.824Z,3.10
2018-02-04T04:56:48.274Z,3.00
2018-02-04T04:59:18.073Z,3.42
2018-02-04T05:01:46.498Z,2.92
2018-02-04T05:04:14.954Z,3.10
2018-02-04T05:06:43.539Z,3.35
2018-02-04T05:09:11.929Z,2.20
2018-02-04T05:11:40.366Z,2.03
2018-02-04T05:14:08.833Z,1.83
2018-02-04T05:16:38.147Z,2.15
2018-02-04T05:19:06.558Z,1.67
2018-02-04T05:21:35.033Z,1.83
2018-02-04T05:24:04.187Z,1.37
2018-02-04T05:26:32.716Z,1.58
2018-02-04T05:29:01.837Z,1.60
2018-02-04T05:31:30.345Z,1.83
2018-02-04T05:33:58.784Z,1.67
2018-02-04T05:36:27.456Z,4.50
2018-02-04T05:38:55.941Z,3.10
2018-02-04T05:41:24.416Z,4.80
2018-02-04T05:43:52.925Z,4.68
2018-02-04T05:46:21.508Z,4.68
2018-02-04T05:48:50.161Z,4.68
2018-02-04T05:51:19.789Z,5.07
2018-02-04T05:53:48.254Z,3.70
2018-02-04T05:56:16.696Z,4.30
2018-02-04T05:58:45.655Z,4.43
2018-02-04T06:01:14.105Z,3.35
2018-02-04T06:03:42.558Z,4.05
2018-02-04T06:06:11.020Z,4.43
2018-02-04T06:08:39.454Z,5.43
2018-02-04T06:11:07.885Z,4.85
2018-02-04T06:13:36.379Z,3.05
2018-02-04T06:16:04.807Z,3.90
2018-02-04T06:18:33.247Z,3.33
2018-02-04T06:21:01.774Z,3.65
2018-02-04T06:23:30.402Z,2.92
2018-02-04T06:25:58.917Z,4.22
2018-02-04T06:28:28.079Z,3.67
2018-02-04T06:30:56.663Z,3.83
2018-02-04T06:33:25.134Z,3.03
2018-02-04T06:35:53.625Z,3.08
2018-02-04T06:38:22.137Z,4.47
2018-02-04T06:40:50.758Z,3.40
2018-02-04T06:43:19.341Z,2.70
2018-02-04T06:45:47.822Z,3.30
2018-02-04T06:48:16.264Z,2.72
2018-02-04T06:50:45.606Z,3.60
2018-02-04T06:53:14.149Z,3.47
2018-02-04T06:55:42.593Z,3.65
2018-02-04T06:58:12.085Z,4.80
2018-02-04T07:00:40.588Z,6.00
2018-02-04T07:03:08.980Z,6.55
2018-02-04T07:05:37.767Z,7.30
2018-02-04T07:08:06.252Z,7.07
2018-02-04T07:10:34.732Z,7.90
2018-02-04T07:13:03.283Z,8.80
2018-02-04T07:15:31.710Z,9.27
2018-02-04T07:18:00.313Z,8.02
2018-02-04T07:20:29.639Z,8.65
2018-02-04T07:22:58.259Z,9.15
2018-02-04T07:25:26.917Z,8.35
2018-02-04T07:27:55.407Z,7.65
2018-02-04T07:30:24.037Z,8.13
2018-02-04T07:32:52.550Z,7.85
2018-02-04T07:35:21.500Z,7.70
2018-02-04T07:37:50.077Z,8.48
2018-02-04T07:40:22.055Z,8.48
2018-02-04T07:42:50.796Z,10.55
2018-02-04T07:45:19.685Z,8.88
2018-02-04T07:47:48.109Z,9.80
2018-02-04T07:50:17.365Z,11.15
2018-02-04T07:52:45.822Z,11.12
2018-02-04T07:55:14.869Z,12.55
2018-02-04T07:57:43.582Z,13.30
2018-02-04T08:00:12.071Z,10.57
2018-02-04T08:02:40.493Z,12.25
2018-02-04T08:05:10.057Z,13.35
2018-02-04T08:07:38.950Z,12.37
2018-02-04T08:10:07.474Z,12.93
2018-02-04T08:12:36.173Z,11.25
2018-02-04T08:15:04.612Z,13.77
2018-02-04T08:17:33.022Z,12.77
2018-02-04T08:20:01.616Z,12.48
2018-02-04T08:22:30.125Z,12.73
2018-02-04T08:24:58.564Z,11.68
2018-02-04T08:27:27.403Z,13.10
2018-02-04T08:29:55.933Z,9.93
2018-02-04T08:32:24.410Z,10.60
2018-02-04T08:34:53.197Z,8.73
2018-02-04T08:37:21.718Z,11.38
2018-02-04T08:39:50.617Z,8.73
2018-02-04T08:42:19.097Z,9.30
2018-02-04T08:44:47.554Z,9.80
2018-02-04T08:47:15.997Z,9.68
2018-02-04T08:49:45.258Z,8.05
2018-02-04T08:52:13.673Z,8.20
2018-02-04T08:54:42.086Z,10.95
2018-02-04T08:57:10.562Z,10.65
2018-02-04T08:59:38.979Z,11.70
2018-02-04T09:02:07.398Z,9.68
2018-02-04T09:04:36.117Z,10.85
2018-02-04T09:07:04.571Z,8.88
2018-02-04T09:09:33.030Z,13.20
2018-02-04T09:12:01.825Z,11.18
2018-02-04T09:14:30.279Z,9.52
2018-02-04T09:16:58.780Z,10.05
2018-02-04T09:19:28.067Z,10.50
2018-02-04T09:21:56.534Z,11.65
2018-02-04T09:24:25.024Z,9.85
2018-02-04T09:26:53.536Z,9.13
2018-02-04T09:29:22.214Z,11.95
2018-02-04T09:31:50.669Z,12.70
2018-02-04T09:34:19.145Z,11.90
2018-02-04T09:36:47.611Z,11.30
2018-02-04T09:39:16.033Z,11.40
2018-02-04T09:41:44.513Z,12.05
2018-02-04T09:44:12.960Z,12.18
2018-02-04T09:46:41.399Z,11.57
2018-02-04T09:49:09.906Z,9.80
2018-02-04T09:51:38.373Z,9.43
2018-02-04T09:54:06.867Z,9.93
2018-02-04T09:56:36.321Z,10.75
2018-02-04T09:59:04.750Z,7.65
2018-02-04T10:01:33.209Z,9.18
2018-02-04T10:04:01.762Z,9.48
2018-02-04T10:06:30.323Z,9.82
2018-02-04T10:08:58.869Z,10.02
2018-02-04T10:11:27.676Z,10.35
2018-02-04T10:13:56.552Z,10.27
2018-02-04T10:16:25.050Z,7.75
2018-02-04T10:18:53.863Z,7.30
2018-02-04T10:21:22.492Z,6.85
2018-02-04T10:23:51.217Z,7.20
2018-02-04T10:26:19.867Z,7.65
2018-02-04T10:28:48.431Z,8.18
2018-02-04T10:31:16.932Z,9.60
2018-02-04T10:33:46.957Z,10.18
2018-02-04T10:36:15.461Z,10.60
2018-02-04T10:38:45.037Z,11.90
2018-02-04T10:41:13.687Z,11.82
2018-02-04T10:43:42.170Z,10.48
2018-02-04T10:46:10.737Z,12.95
2018-02-04T10:48:40.124Z,11.68
2018-02-04T10:51:14.018Z,12.35
2018-02-04T10:53:42.553Z,11.70
2018-02-04T10:56:11.027Z,13.55
2018-02-04T10:58:39.458Z,11.43
2018-02-04T11:01:08.427Z,12.80
2018-02-04T11:03:36.981Z,12.35
2018-02-04T11:06:05.856Z,11.48
2018-02-04T11:08:35.695Z,12.70
2018-02-04T11:11:04.139Z,14.98
2018-02-04T11:13:32.674Z,13.85
2018-02-04T11:16:02.075Z,12.50
2018-02-04T11:18:30.773Z,14.32
2018-02-04T11:20:59.358Z,12.95
2018-02-04T11:23:28.239Z,13.10
2018-02-04T11:25:56.915Z,13.07
2018-02-04T11:28:25.406Z,12.20
2018-02-04T11:30:54.096Z,11.63
2018-02-04T11:33:23.056Z,13.05
2018-02-04T11:35:51.803Z,13.77
2018-02-04T11:38:20.467Z,12.23
2018-02-04T11:40:49.021Z,11.90
2018-02-04T11:43:17.475Z,11.02
2018-02-04T11:45:45.929Z,11.38
2018-02-04T11:48:14.359Z,10.15
2018-02-04T11:50:42.899Z,9.77
2018-02-04T11:53:11.472Z,9.50
2018-02-04T11:55:39.984Z,9.95
2018-02-04T11:58:08.422Z,9.48
2018-02-04T12:00:37.271Z,8.98
2018-02-04T12:03:05.753Z,8.10
2018-02-04T12:05:34.419Z,9.57
2018-02-04T12:08:02.918Z,8.65
2018-02-04T12:10:31.374Z,10.40
2018-02-04T12:12:59.874Z,9.50
2018-02-04T12:15:28.621Z,10.02
2018-02-04T12:17:57.104Z,9.45
2018-02-04T12:20:25.688Z,11.43
2018-02-04T12:22:56.058Z,10.27
2018-02-04T12:25:24.749Z,10.88
2018-02-04T12:27:53.378Z,10.88
2018-02-04T12:30:23.763Z,11.80
2018-02-04T12:32:52.458Z,10.18
2018-02-04T12:35:21.741Z,13.10
2018-02-04T12:37:50.960Z,11.70
2018-02-04T12:40:20.085Z,12.37
2018-02-04T12:42:48.607Z,12.27
2018-02-04T12:45:17.630Z,13.05
2018-02-04T12:47:47.312Z,11.93
2018-02-04T12:50:15.749Z,12.50
2018-02-04T12:52:45.816Z,13.32
2018-02-04T12:55:14.287Z,12.02
2018-02-04T12:57:42.813Z,14.90
2018-02-04T13:00:11.344Z,12.07
2018-02-04T13:02:39.865Z,13.02
2018-02-04T13:05:08.430Z,9.40
2018-02-04T13:07:38.185Z,11.25
2018-02-04T13:10:06.700Z,9.13
2018-02-04T13:12:35.279Z,10.00
2018-02-04T13:15:08.266Z,8.00
2018-02-04T13:17:37.085Z,9.38
2018-02-04T13:20:05.660Z,8.77
2018-02-04T13:22:35.956Z,7.00
2018-02-04T13:25:04.452Z,7.68
2018-02-04T13:27:32.866Z,7.50
2018-02-04T13:30:01.580Z,8.43
2018-02-04T13:32:31.368Z,8.63
2018-02-04T13:34:59.949Z,7.95
2018-02-04T13:37:29.231Z,7.75
2018-02-04T13:39:58.198Z,7.68
2018-02-04T13:42:27.188Z,7.28
2018-02-04T13:44:55.874Z,7.70
2018-02-04T13:47:24.559Z,8.20
2018-02-04T13:49:53.140Z,8.00
2018-02-04T13:52:22.573Z,6.87
2018-02-04T13:54:51.250Z,7.25
2018-02-04T13:57:19.761Z,6.15
2018-02-04T13:59:49.374Z,7.05
2018-02-04T14:02:17.893Z,7.65
2018-02-04T14:04:46.446Z,6.32
2018-02-04T14:07:16.024Z,7.00
2018-02-04T14:09:44.609Z,7.05
2018-02-04T14:12:13.140Z,6.97
2018-02-04T14:14:41.734Z,6.30
2018-02-04T14:17:10.231Z,7.12
2018-02-04T14:19:38.847Z,6.32
2018-02-04T14:22:07.505Z,6.25
2018-02-04T14:24:35.951Z,6.07
2018-02-04T14:27:04.431Z,5.78
2018-02-04T14:29:33.630Z,6.30
2018-02-04T14:32:02.056Z,8.13
2018-02-04T14:34:30.493Z,5.45
2018-02-04T14:36:59.385Z,6.30
2018-02-04T14:39:28.502Z,7.07
2018-02-04T14:41:56.974Z,6.15
2018-02-04T14:44:27.074Z,5.90
2018-02-04T14:46:55.690Z,7.53
2018-02-04T14:49:24.192Z,8.00
2018-02-04T14:51:52.729Z,6.82
2018-02-04T14:54:21.311Z,5.50
2018-02-04T14:56:49.792Z,6.35
2018-02-04T14:59:18.295Z,6.00
2018-02-04T15:01:46.747Z,5.60
2018-02-04T15:04:15.353Z,5.80
2018-02-04T15:06:49.265Z,5.62
2018-02-04T15:09:17.717Z,6.35
2018-02-04T15:11:46.199Z,5.55
2018-02-04T15:14:14.816Z,5.95
2018-02-04T15:16:43.728Z,5.18
2018-02-04T15:19:12.183Z,6.85
2018-02-04T15:21:40.690Z,5.05
2018-02-04T15:24:09.319Z,5.90
2018-02-04T15:26:40.788Z,5.85
2018-02-04T15:29:10.394Z,5.45
2018-02-04T15:31:40.091Z,5.20
2018-02-04T15:34:08.550Z,7.07
2018-02-04T15:36:38.090Z,7.97
2018-02-04T15:39:06.773Z,8.18
2018-02-04T15:41:35.343Z,6.15
2018-02-04T15:44:06.400Z,6.28
2018-02-04T15:46:34.878Z,7.43
2018-02-04T15:49:03.325Z,6.93
2018-02-04T15:51:31.932Z,7.75
2018-02-04T15:54:00.423Z,6.78
2018-02-04T15:56:29.006Z,6.93
2018-02-04T15:58:57.676Z,6.85
2018-02-04T16:01:26.381Z,6.72
2018-02-04T16:03:54.928Z,6.95
2018-02-04T16:06:24.157Z,7.57
2018-02-04T16:08:53.119Z,6.40
2018-02-04T16:11:22.419Z,6.78
2018-02-04T16:13:51.208Z,6.60
2018-02-04T16:16:19.609Z,6.15
2018-02-04T16:18:48.066Z,6.55
2018-02-04T16:21:17.314Z,6.35
2018-02-04T16:23:45.739Z,6.40
2018-02-04T16:26:14.176Z,6.90
2018-02-04T16:28:43.033Z,5.05
2018-02-04T16:31:11.492Z,5.85
2018-02-04T16:33:40.732Z,6.03
2018-02-04T16:36:09.889Z,7.87
2018-02-04T16:38:38.340Z,5.40
2018-02-04T16:41:07.766Z,6.50
2018-02-04T16:43:36.991Z,5.68
2018-02-04T16:46:05.402Z,6.78
2018-02-04T16:48:33.886Z,5.97
2018-02-04T16:51:02.617Z,7.30
2018-02-04T16:53:32.329Z,6.47
2018-02-04T16:56:00.959Z,6.30
2018-02-04T16:58:29.688Z,7.93
2018-02-04T17:00:58.231Z,6.55
2018-02-04T17:03:26.776Z,5.97
2018-02-04T17:05:58.847Z,5.60
2018-02-04T17:08:27.304Z,6.90
2018-02-04T17:10:55.925Z,7.40
2018-02-04T17:13:25.111Z,5.95
2018-02-04T17:15:53.718Z,6.20
2018-02-04T17:18:22.283Z,6.75
2018-02-04T17:20:52.021Z,6.40
2018-02-04T17:23:20.607Z,7.37
2018-02-04T17:25:49.073Z,6.32
2018-02-04T17:28:18.251Z,6.10
2018-02-04T17:30:46.716Z,6.07
2018-02-04T17:33:15.183Z,7.25
2018-02-04T17:35:45.114Z,6.10
2018-02-04T17:38:13.599Z,6.75
2018-02-04T17:40:42.022Z,7.43
2018-02-04T17:43:11.451Z,6.87
2018-02-04T17:45:40.152Z,6.53
2018-02-04T17:48:08.615Z,6.30
2018-02-04T17:50:37.965Z,7.00
2018-02-04T17:53:06.477Z,6.65
2018-02-04T17:55:34.933Z,7.40
2018-02-04T17:58:03.640Z,7.60
2018-02-04T18:00:32.777Z,6.65
2018-02-04T18:03:02.221Z,7.95
2018-02-04T18:05:32.305Z,6.80
2018-02-04T18:08:00.995Z,6.55
2018-02-04T18:10:29.582Z,7.65
2018-02-04T18:12:58.906Z,6.12
2018-02-04T18:15:27.460Z,7.55
2018-02-04T18:17:55.951Z,7.90
2018-02-04T18:20:24.847Z,7.62
2018-02-04T18:22:53.424Z,7.00
2018-02-04T18:25:22.050Z,8.23
2018-02-04T18:27:51.611Z,8.20
2018-02-04T18:30:20.689Z,7.87
2018-02-04T18:32:49.157Z,6.97
2018-02-04T18:35:17.988Z,8.52
2018-02-04T18:37:46.503Z,7.20
2018-02-04T18:40:14.925Z,7.85
2018-02-04T18:42:43.444Z,8.25
2018-02-04T18:45:11.894Z,6.32
2018-02-04T18:47:40.373Z,6.87
2018-02-04T18:50:09.270Z,7.03
2018-02-04T18:52:37.747Z,6.70
2018-02-04T18:55:06.204Z,6.03
2018-02-04T18:57:35.132Z,6.45
2018-02-04T19:00:03.609Z,6.53
2018-02-04T19:02:32.245Z,7.55
2018-02-04T19:05:00.966Z,6.00
2018-02-04T19:07:29.732Z,6.03
2018-02-04T19:09:58.341Z,5.70
2018-02-04T19:12:27.017Z,5.43
2018-02-04T19:14:55.594Z,5.28
2018-02-04T19:17:24.228Z,6.05
2018-02-04T19:19:53.536Z,6.82
2018-02-04T19:22:22.528Z,6.95
2018-02-04T19:24:51.123Z,6.30
2018-02-04T19:27:19.737Z,6.20
2018-02-04T19:29:48.192Z,6.85
2018-02-04T19:32:16.626Z,4.75
2018-02-04T19:34:45.869Z,6.57
2018-02-04T19:37:14.329Z,5.70
2018-02-04T19:39:43.932Z,5.72
2018-02-04T19:42:12.791Z,4.87
2018-02-04T19:44:41.270Z,5.47
2018-02-04T19:47:09.708Z,6.10
2018-02-04T19:49:38.768Z,6.20
2018-02-04T19:52:07.185Z,5.10
2018-02-04T19:54:35.662Z,5.57
2018-02-04T19:57:04.473Z,5.95
2018-02-04T19:59:33.458Z,4.85
2018-02-04T20:02:02.043Z,5.72
2018-02-04T20:04:31.077Z,4.47
2018-02-04T20:06:59.683Z,5.12
2018-02-04T20:09:28.982Z,4.85
2018-02-04T20:11:58.107Z,3.90
2018-02-04T20:14:26.640Z,4.35
2018-02-04T20:16:55.179Z,4.20
2018-02-04T20:19:24.010Z,5.00
2018-02-04T20:21:52.535Z,5.12
2018-02-04T20:24:21.229Z,4.37
2018-02-04T20:26:52.951Z,5.68
2018-02-04T20:29:21.540Z,4.15
2018-02-04T20:31:50.106Z,4.25
2018-02-04T20:34:31.071Z,3.67
2018-02-04T20:36:59.659Z,3.70
2018-02-04T20:39:28.234Z,4.05
2018-02-04T20:41:56.927Z,3.65
2018-02-04T20:44:25.764Z,4.30
2018-02-04T20:46:54.338Z,4.00
2018-02-04T20:49:23.041Z,4.28
2018-02-04T20:51:51.735Z,5.35
2018-02-04T20:54:20.350Z,4.45
2018-02-04T20:56:49.076Z,5.28
2018-02-04T20:59:17.511Z,5.00
2018-02-04T21:01:45.994Z,4.47
2018-02-04T21:04:14.801Z,3.70
2018-02-04T21:06:43.262Z,4.85
2018-02-04T21:09:11.712Z,3.45
2018-02-04T21:11:40.231Z,3.35
2018-02-04T21:14:08.738Z,5.35
2018-02-04T21:16:37.162Z,5.87
2018-02-04T21:19:05.667Z,5.22
2018-02-04T21:21:34.348Z,4.82
2018-02-04T21:24:02.817Z,4.12
2018-02-04T21:26:32.302Z,5.53
2018-02-04T21:29:00.864Z,5.28
2018-02-04T21:31:30.701Z,3.50
2018-02-04T21:33:59.289Z,3.30
2018-02-04T21:36:28.555Z,4.55
2018-02-04T21:38:57.117Z,3.78
2018-02-04T21:41:26.163Z,3.60
2018-02-04T21:43:54.937Z,4.10
2018-02-04T21:46:23.613Z,3.80
2018-02-04T21:48:52.286Z,4.43
2018-02-04T21:51:20.943Z,3.83
2018-02-04T21:53:49.413Z,3.90
2018-02-04T21:56:17.938Z,3.30
2018-02-04T21:58:46.390Z,3.75
2018-02-04T22:01:14.854Z,3.90
2018-02-04T22:03:43.376Z,3.55
2018-02-04T22:06:11.830Z,4.60
2018-02-04T22:08:40.289Z,4.12
2018-02-04T22:11:08.862Z,4.25
2018-02-04T22:13:38.973Z,4.30
2018-02-04T22:16:07.606Z,4.53
2018-02-04T22:18:36.516Z,4.30
2018-02-04T22:21:05.117Z,3.90
2018-02-04T22:23:33.521Z,3.92
2018-02-04T22:26:02.517Z,4.72
2018-02-04T22:28:31.908Z,4.22
2018-02-04T22:31:00.420Z,4.43
2018-02-04T22:33:29.852Z,3.95
2018-02-04T22:35:58.435Z,4.28
2018-02-04T22:38:27.268Z,3.50
2018-02-04T22:40:56.717Z,4.22
2018-02-04T22:43:25.720Z,4.28
2018-02-04T22:45:54.273Z,4.10
2018-02-04T22:48:23.656Z,4.32
2018-02-04T22:50:52.230Z,3.92
2018-02-04T22:53:20.869Z,4.50
2018-02-04T22:55:49.783Z,4.03
2018-02-04T22:58:18.284Z,4.00
2018-02-04T23:00:47.947Z,3.80
2018-02-04T23:03:17.367Z,4.10
2018-02-04T23:05:45.843Z,4.20
2018-02-04T23:08:14.516Z,3.50
2018-02-04T23:10:42.981Z,3.30
2018-02-04T23:13:11.556Z,3.42
2018-02-04T23:15:40.074Z,4.45
2018-02-04T23:18:08.578Z,3.60
2018-02-04T23:20:38.109Z,3.22
2018-02-04T23:23:06.765Z,3.72
2018-02-04T23:25:36.535Z,3.10
2018-02-04T23:28:05.185Z,3.28
2018-02-04T23:30:33.599Z,2.90
2018-02-04T23:33:02.852Z,3.40
2018-02-04T23:35:31.322Z,3.75
2018-02-04T23:37:59.724Z,3.10
2018-02-04T23:40:28.518Z,2.83
2018-02-04T23:42:57.000Z,3.37
2018-02-04T23:45:26.573Z,2.95
2018-02-04T23:47:55.317Z,4.50
2018-02-04T23:50:24.623Z,2.87
2018-02-04T23:52:53.916Z,3.05
2018-02-04T23:55:24.201Z,3.40
2018-02-04T23:57:53.568Z,2.62
